createdAt,value
2022-12-14T00:01:22.667Z,95.35
2022-12-14T00:03:50.310Z,95.17
2022-12-14T00:06:24.496Z,95.25
2022-12-14T00:08:52.055Z,96.18
2022-12-14T00:11:22.773Z,95.68
2022-12-14T00:13:56.905Z,96.39
2022-12-14T00:16:24.712Z,96.01
2022-12-14T00:18:52.647Z,96.02
2022-12-14T00:21:19.902Z,96.17
2022-12-14T00:23:47.662Z,95.82
2022-12-14T00:26:15.883Z,95.07
2022-12-14T00:28:43.431Z,95.32
2022-12-14T00:31:10.910Z,94.50
2022-12-14T00:33:38.113Z,94.65
2022-12-14T00:36:06.512Z,95.58
2022-12-14T00:38:33.462Z,95.71
2022-12-14T00:41:00.239Z,95.23
2022-12-14T00:43:27.395Z,95.42
2022-12-14T00:45:54.305Z,95.39
2022-12-14T00:48:22.289Z,95.90
2022-12-14T00:50:50.199Z,96.66
2022-12-14T00:53:17.624Z,96.92
2022-12-14T00:55:48.897Z,96.25
2022-12-14T00:58:17.646Z,96.57
2022-12-14T01:00:44.906Z,96.56
2022-12-14T01:03:12.788Z,96.81
2022-12-14T01:05:40.022Z,95.60
2022-12-14T01:08:07.418Z,95.44
2022-12-14T01:10:34.342Z,95.69
2022-12-14T01:13:01.239Z,96.56
2022-12-14T01:15:28.007Z,95.05
2022-12-14T01:17:55.095Z,95.76
2022-12-14T01:20:22.173Z,96.09
2022-12-14T01:22:53.825Z,96.80
2022-12-14T01:25:21.289Z,96.85
2022-12-14T01:27:48.186Z,96.89
2022-12-14T01:30:15.023Z,97.15
2022-12-14T01:32:42.080Z,96.83
2022-12-14T01:35:09.233Z,96.70
2022-12-14T01:37:36.129Z,96.48
2022-12-14T01:40:03.276Z,96.46
2022-12-14T01:42:30.138Z,96.83
2022-12-14T01:44:58.163Z,96.86
2022-12-14T01:47:28.812Z,96.10
2022-12-14T01:50:14.468Z,96.42
2022-12-14T01:52:45.994Z,96.70
2022-12-14T01:55:25.074Z,97.16
2022-12-14T01:57:55.297Z,97.46
2022-12-14T02:00:22.103Z,97.40
2022-12-14T02:02:56.316Z,97.46
2022-12-14T02:05:24.256Z,96.57
2022-12-14T02:07:53.089Z,96.80
2022-12-14T02:10:21.783Z,96.59
2022-12-14T02:12:50.196Z,96.67
2022-12-14T02:15:17.619Z,95.69
2022-12-14T02:17:46.531Z,94.21
2022-12-14T02:20:14.848Z,94.65
2022-12-14T02:22:53.842Z,95.40
2022-12-14T02:25:39.436Z,95.46
2022-12-14T02:28:26.542Z,96.16
2022-12-14T02:31:13.634Z,96.40
2022-12-14T02:33:55.701Z,96.81
2022-12-14T02:36:29.234Z,97.16
2022-12-14T02:38:55.995Z,97.21
2022-12-14T02:41:41.696Z,97.31
2022-12-14T02:44:20.891Z,96.74
2022-12-14T02:47:06.627Z,95.31
2022-12-14T02:49:33.584Z,94.81
2022-12-14T02:52:23.856Z,94.96
2022-12-14T02:55:01.681Z,95.47
2022-12-14T02:57:35.489Z,93.21
2022-12-14T03:00:03.091Z,94.44
2022-12-14T03:02:31.679Z,95.42
2022-12-14T03:04:58.825Z,95.63
2022-12-14T03:07:34.648Z,95.97
2022-12-14T03:10:08.283Z,95.87
2022-12-14T03:12:36.612Z,96.46
2022-12-14T03:15:05.164Z,96.97
2022-12-14T03:17:34.307Z,97.08
2022-12-14T03:20:11.902Z,97.26
2022-12-14T03:22:38.951Z,97.81
2022-12-14T03:25:09.116Z,96.93
2022-12-14T03:27:41.542Z,96.71
2022-12-14T03:30:13.175Z,96.82
2022-12-14T03:32:42.989Z,96.88
2022-12-14T03:35:22.397Z,97.74
2022-12-14T03:37:56.346Z,96.38
2022-12-14T03:40:27.262Z,96.68
2022-12-14T03:42:59.894Z,97.57
2022-12-14T03:45:34.569Z,97.87
2022-12-14T03:48:27.937Z,98.29
2022-12-14T03:51:04.225Z,97.06
2022-12-14T03:53:41.654Z,97.11
2022-12-14T03:56:20.423Z,97.48
2022-12-14T03:59:05.637Z,97.98
2022-12-14T04:01:35.393Z,98.35
2022-12-14T04:04:34.732Z,98.61
2022-12-14T04:07:08.185Z,98.87
2022-12-14T04:09:44.218Z,97.86
2022-12-14T04:12:49.442Z,97.56
2022-12-14T04:15:55.845Z,97.67
2022-12-14T04:18:43.977Z,96.24
2022-12-14T04:21:10.795Z,96.91
2022-12-14T04:24:00.572Z,97.41
2022-12-14T04:26:30.393Z,98.07
2022-12-14T04:29:20.203Z,97.91
2022-12-14T04:31:51.261Z,98.17
2022-12-14T04:34:20.279Z,98.10
2022-12-14T04:36:50.345Z,97.71
2022-12-14T04:39:26.905Z,97.84
2022-12-14T04:41:56.499Z,97.73
2022-12-14T04:44:27.017Z,97.80
2022-12-14T04:46:54.533Z,97.58
2022-12-14T04:49:30.316Z,97.71
2022-12-14T04:52:05.637Z,97.49
2022-12-14T04:54:39.282Z,97.06
2022-12-14T04:57:18.973Z,97.65
2022-12-14T04:59:47.987Z,98.24
2022-12-14T05:02:22.919Z,97.88
2022-12-14T05:04:56.335Z,97.85
2022-12-14T05:07:23.136Z,97.38
2022-12-14T05:09:55.507Z,97.38
2022-12-14T05:12:39.563Z,97.16
2022-12-14T05:15:09.552Z,97.54
2022-12-14T05:17:37.725Z,97.43
2022-12-14T05:20:05.245Z,97.52
2022-12-14T05:22:32.039Z,98.08
2022-12-14T05:24:58.715Z,97.64
2022-12-14T05:27:25.835Z,97.94
2022-12-14T05:29:52.937Z,97.78
2022-12-14T05:32:20.062Z,97.99
2022-12-14T05:34:46.936Z,97.69
2022-12-14T05:37:18.276Z,97.63
2022-12-14T05:39:45.327Z,95.91
2022-12-14T05:42:12.292Z,96.73
2022-12-14T05:44:39.031Z,96.97
2022-12-14T05:47:05.909Z,97.16
2022-12-14T05:49:32.699Z,97.42
2022-12-14T05:51:59.894Z,97.57
2022-12-14T05:54:26.750Z,96.59
2022-12-14T05:56:53.465Z,96.60
2022-12-14T05:59:20.285Z,94.68
2022-12-14T06:01:49.522Z,94.18
2022-12-14T06:04:18.029Z,93.76
2022-12-14T06:06:44.854Z,93.13
2022-12-14T06:09:13.722Z,92.98
2022-12-14T06:11:41.347Z,93.44
2022-12-14T06:14:08.753Z,93.09
2022-12-14T06:16:35.698Z,94.32
2022-12-14T06:19:04.643Z,94.08
2022-12-14T06:21:32.549Z,94.44
2022-12-14T06:23:59.712Z,94.79
2022-12-14T06:26:30.217Z,94.77
2022-12-14T06:28:57.655Z,94.59
2022-12-14T06:31:29.252Z,93.85
2022-12-14T06:33:58.764Z,92.48
2022-12-14T06:36:28.987Z,92.39
2022-12-14T06:38:56.441Z,92.35
2022-12-14T06:41:24.261Z,92.10
2022-12-14T06:43:51.449Z,91.76
2022-12-14T06:46:19.914Z,91.91
2022-12-14T06:48:50.620Z,91.37
2022-12-14T06:51:17.709Z,90.57
2022-12-14T06:53:44.765Z,91.63
2022-12-14T06:56:12.595Z,92.21
2022-12-14T06:58:39.395Z,91.90
2022-12-14T07:01:11.655Z,91.95
2022-12-14T07:03:38.844Z,90.16
2022-12-14T07:06:06.740Z,90.11
2022-12-14T07:08:35.127Z,90.21
2022-12-14T07:11:02.877Z,90.01
2022-12-14T07:13:29.957Z,89.14
2022-12-14T07:15:58.076Z,88.60
2022-12-14T07:18:25.735Z,89.00
2022-12-14T07:21:18.888Z,89.14
2022-12-14T07:23:46.674Z,89.86
2022-12-14T07:26:17.935Z,90.20
2022-12-14T07:28:45.909Z,89.85
2022-12-14T07:31:14.437Z,88.95
2022-12-14T07:33:41.425Z,86.40
2022-12-14T07:36:09.842Z,85.88
2022-12-14T07:38:37.892Z,86.29
2022-12-14T07:41:11.344Z,87.08
2022-12-14T07:43:39.396Z,86.76
2022-12-14T07:46:07.676Z,86.00
2022-12-14T07:48:35.047Z,85.38
2022-12-14T07:51:09.356Z,86.65
2022-12-14T07:53:38.421Z,86.37
2022-12-14T07:56:06.754Z,85.07
2022-12-14T07:58:35.017Z,85.71
2022-12-14T08:01:12.879Z,86.45
2022-12-14T08:03:47.612Z,86.60
2022-12-14T08:06:15.393Z,87.24
2022-12-14T08:08:42.236Z,88.76
2022-12-14T08:11:09.355Z,88.74
2022-12-14T08:13:36.615Z,88.84
2022-12-14T08:16:07.188Z,88.58
2022-12-14T08:18:34.527Z,88.75
2022-12-14T08:21:01.948Z,88.85
2022-12-14T08:23:29.374Z,88.13
2022-12-14T08:25:57.150Z,87.70
2022-12-14T08:28:24.281Z,88.73
2022-12-14T08:30:51.587Z,88.80
2022-12-14T08:33:18.562Z,89.94
2022-12-14T08:35:45.585Z,88.48
2022-12-14T08:38:12.484Z,87.85
2022-12-14T08:40:39.746Z,88.39
2022-12-14T08:43:06.790Z,87.43
2022-12-14T08:45:33.985Z,87.39
2022-12-14T08:48:01.923Z,87.76
2022-12-14T08:50:32.084Z,85.55
2022-12-14T08:52:58.937Z,87.54
2022-12-14T08:55:29.073Z,88.25
2022-12-14T08:57:57.138Z,88.85
2022-12-14T09:00:24.093Z,88.29
2022-12-14T09:02:51.471Z,88.74
2022-12-14T09:05:18.365Z,88.35
2022-12-14T09:07:45.377Z,88.52
2022-12-14T09:10:13.086Z,89.33
2022-12-14T09:12:40.345Z,88.10
2022-12-14T09:15:07.666Z,88.62
2022-12-14T09:17:34.923Z,89.21
2022-12-14T09:20:01.981Z,88.54
2022-12-14T09:22:28.837Z,87.66
2022-12-14T09:24:55.926Z,87.64
2022-12-14T09:27:22.799Z,87.52
2022-12-14T09:29:50.281Z,87.58
2022-12-14T09:32:17.118Z,87.18
2022-12-14T09:34:44.108Z,86.49
2022-12-14T09:37:11.012Z,87.24
2022-12-14T09:39:37.784Z,86.73
2022-12-14T09:42:30.958Z,87.33
2022-12-14T09:45:07.680Z,86.43
2022-12-14T09:47:37.383Z,87.17
2022-12-14T09:50:05.455Z,86.01
2022-12-14T09:52:41.787Z,84.88
2022-12-14T09:55:17.466Z,85.37
2022-12-14T09:57:45.189Z,85.90
2022-12-14T10:00:19.528Z,87.13
2022-12-14T10:02:46.840Z,88.79
2022-12-14T10:05:29.365Z,88.89
2022-12-14T10:08:22.316Z,87.51
2022-12-14T10:10:54.277Z,87.23
2022-12-14T10:13:33.024Z,86.46
2022-12-14T10:16:06.219Z,88.32
2022-12-14T10:19:02.468Z,89.97
2022-12-14T10:21:38.528Z,89.75
2022-12-14T10:24:06.524Z,91.18
2022-12-14T10:26:38.678Z,92.20
2022-12-14T10:29:10.866Z,91.73
2022-12-14T10:31:44.939Z,93.17
2022-12-14T10:34:22.423Z,93.76
2022-12-14T10:36:54.109Z,93.86
2022-12-14T10:39:22.995Z,93.84
2022-12-14T10:42:01.735Z,94.49
2022-12-14T10:44:31.431Z,94.88
2022-12-14T10:47:01.290Z,96.37
2022-12-14T10:49:32.742Z,97.49
2022-12-14T10:52:05.932Z,99.83
2022-12-14T10:54:36.448Z,98.52
2022-12-14T10:57:03.509Z,97.82
2022-12-14T10:59:42.279Z,97.61
2022-12-14T11:02:17.653Z,100.00
2022-12-14T11:04:49.569Z,100.00
2022-12-14T11:07:17.914Z,99.14
2022-12-14T11:09:44.946Z,98.67
2022-12-14T11:12:14.503Z,98.49
2022-12-14T11:14:58.839Z,95.83
2022-12-14T11:17:32.925Z,95.62
2022-12-14T11:20:26.027Z,98.16
2022-12-14T11:22:57.821Z,92.28
2022-12-14T11:25:28.502Z,90.17
2022-12-14T11:27:55.391Z,89.83
2022-12-14T11:30:22.291Z,88.69
2022-12-14T11:32:49.903Z,90.69
2022-12-14T11:35:17.934Z,90.93
2022-12-14T11:37:45.043Z,88.70
2022-12-14T11:40:20.218Z,89.61
2022-12-14T11:42:49.384Z,91.78
2022-12-14T11:45:28.883Z,90.15
2022-12-14T11:48:22.211Z,90.86
2022-12-14T11:50:50.055Z,88.16
2022-12-14T11:53:18.310Z,89.15
2022-12-14T11:55:50.971Z,85.31
2022-12-14T11:58:20.475Z,84.60
2022-12-14T12:00:52.721Z,86.13
2022-12-14T12:03:23.903Z,83.59
2022-12-14T12:05:54.565Z,87.58
2022-12-14T12:08:26.688Z,85.48
2022-12-14T12:11:01.837Z,79.17
2022-12-14T12:13:31.067Z,82.53
2022-12-14T12:16:18.177Z,81.02
2022-12-14T12:18:49.807Z,84.83
2022-12-14T12:21:29.543Z,85.48
2022-12-14T12:23:59.962Z,85.04
2022-12-14T12:26:32.696Z,85.38
2022-12-14T12:29:19.672Z,77.55
2022-12-14T12:31:49.465Z,77.97
2022-12-14T12:34:22.504Z,79.59
2022-12-14T12:37:24.153Z,76.96
2022-12-14T12:39:37.318Z,78.21
2022-12-14T12:42:10.016Z,80.71
2022-12-14T12:44:56.969Z,82.10
2022-12-14T12:47:40.083Z,82.99
2022-12-14T12:50:17.884Z,84.91
2022-12-14T12:52:48.082Z,86.24
2022-12-14T12:55:17.336Z,85.75
2022-12-14T12:57:46.157Z,86.20
2022-12-14T13:00:20.450Z,88.02
2022-12-14T13:02:51.177Z,88.56
2022-12-14T13:08:14.437Z,89.59
2022-12-14T13:11:16.861Z,90.69
2022-12-14T13:13:34.698Z,90.54
2022-12-14T13:16:14.859Z,90.90
2022-12-14T13:21:37.742Z,91.99
2022-12-14T13:24:05.466Z,92.38
2022-12-14T13:27:03.186Z,91.63
2022-12-14T13:29:38.072Z,91.51
2022-12-14T13:32:15.818Z,93.52
2022-12-14T13:35:01.534Z,93.51
2022-12-14T13:37:44.575Z,93.40
2022-12-14T13:40:30.247Z,93.60
2022-12-14T13:42:56.987Z,94.74
2022-12-14T13:45:29.004Z,94.55
2022-12-14T13:47:57.377Z,95.20
2022-12-14T13:50:38.507Z,94.38
2022-12-14T13:53:23.009Z,93.42
2022-12-14T13:55:52.541Z,93.51
2022-12-14T13:58:22.026Z,94.47
2022-12-14T14:00:50.726Z,93.32
2022-12-14T14:03:36.087Z,92.41
2022-12-14T14:06:12.239Z,94.79
2022-12-14T14:08:43.763Z,93.55
2022-12-14T14:11:39.365Z,94.54
2022-12-14T14:14:15.770Z,94.11
2022-12-14T14:16:45.038Z,94.98
2022-12-14T14:19:11.786Z,95.53
2022-12-14T14:21:58.926Z,95.58
2022-12-14T14:24:27.968Z,94.98
2022-12-14T14:27:11.122Z,96.18
2022-12-14T14:29:44.662Z,96.23
2022-12-14T14:32:43.779Z,97.08
2022-12-14T14:35:29.429Z,97.86
2022-12-14T14:38:02.233Z,98.16
2022-12-14T14:40:51.289Z,98.03
2022-12-14T14:43:32.487Z,97.51
2022-12-14T14:46:02.296Z,96.85
2022-12-14T14:48:29.621Z,98.46
2022-12-14T14:51:22.977Z,97.92
2022-12-14T14:54:09.773Z,99.94
2022-12-14T14:56:37.819Z,100.00
2022-12-14T14:59:19.819Z,99.84
2022-12-14T15:01:48.730Z,100.00
2022-12-14T15:04:23.254Z,100.00
2022-12-14T15:06:51.839Z,100.00
2022-12-14T15:09:27.704Z,100.00
2022-12-14T15:11:56.162Z,100.00
2022-12-14T15:14:32.476Z,100.00
2022-12-14T15:16:59.569Z,100.00
2022-12-14T15:19:33.856Z,100.00
2022-12-14T15:22:03.741Z,100.00
2022-12-14T15:24:32.982Z,100.00
2022-12-14T15:27:00.646Z,100.00
2022-12-14T15:29:28.349Z,100.00
2022-12-14T15:31:59.611Z,100.00
2022-12-14T15:34:27.426Z,100.00
2022-12-14T15:36:54.505Z,100.00
2022-12-14T15:39:28.610Z,100.00
2022-12-14T15:42:02.300Z,100.00
2022-12-14T15:44:29.354Z,100.00
2022-12-14T15:46:56.367Z,100.00
2022-12-14T15:49:23.477Z,100.00
2022-12-14T15:51:51.791Z,100.00
2022-12-14T15:54:19.928Z,100.00
2022-12-14T15:56:51.512Z,100.00
2022-12-14T15:59:32.049Z,100.00
2022-12-14T16:02:17.584Z,100.00
2022-12-14T16:04:45.391Z,100.00
2022-12-14T16:07:42.271Z,100.00
2022-12-14T16:10:18.303Z,99.04
2022-12-14T16:12:49.279Z,97.32
2022-12-14T16:15:26.429Z,96.69
2022-12-14T16:18:01.041Z,94.26
2022-12-14T16:20:32.301Z,95.26
2022-12-14T16:23:08.976Z,93.39
2022-12-14T16:25:37.923Z,94.27
2022-12-14T16:28:23.628Z,93.42
2022-12-14T16:31:19.985Z,92.98
2022-12-14T16:33:50.362Z,91.60
2022-12-14T16:36:20.881Z,92.65
2022-12-14T16:38:56.165Z,92.25
2022-12-14T16:41:35.400Z,93.04
2022-12-14T16:44:03.571Z,93.82
2022-12-14T16:46:30.564Z,94.49
2022-12-14T16:49:20.511Z,94.08
2022-12-14T16:52:07.465Z,94.92
2022-12-14T16:54:35.150Z,94.98
2022-12-14T16:57:06.815Z,95.62
2022-12-14T16:59:39.242Z,95.58
2022-12-14T17:02:06.374Z,96.58
2022-12-14T17:04:35.749Z,98.16
2022-12-14T17:07:03.211Z,98.27
2022-12-14T17:09:33.647Z,99.19
2022-12-14T17:12:02.862Z,98.77
2022-12-14T17:14:29.784Z,99.45
2022-12-14T17:17:01.515Z,99.63
2022-12-14T17:19:38.473Z,100.00
2022-12-14T17:22:06.738Z,100.00
2022-12-14T17:24:36.469Z,100.00
2022-12-14T17:27:03.839Z,100.00
2022-12-14T17:29:31.808Z,100.00
2022-12-14T17:32:01.414Z,100.00
2022-12-14T17:34:29.175Z,100.00
2022-12-14T17:36:56.648Z,100.00
2022-12-14T17:39:24.980Z,100.00
2022-12-14T17:41:52.052Z,100.00
2022-12-14T17:44:19.963Z,100.00
2022-12-14T17:46:48.845Z,100.00
2022-12-14T17:49:16.464Z,100.00
2022-12-14T17:51:46.260Z,100.00
2022-12-14T17:54:17.347Z,100.00
2022-12-14T17:56:44.543Z,100.00
2022-12-14T17:59:11.274Z,100.00
2022-12-14T18:01:38.690Z,100.00
2022-12-14T18:04:05.975Z,100.00
2022-12-14T18:06:32.797Z,100.00
2022-12-14T18:08:59.653Z,100.00
2022-12-14T18:11:29.735Z,100.00
2022-12-14T18:13:56.707Z,100.00
2022-12-14T18:16:24.331Z,100.00
2022-12-14T18:18:54.189Z,100.00
2022-12-14T18:21:25.822Z,100.00
2022-12-14T18:23:52.760Z,100.00
2022-12-14T18:26:21.315Z,100.00
2022-12-14T18:28:48.971Z,100.00
2022-12-14T18:31:20.304Z,100.00
2022-12-14T18:33:47.597Z,100.00
2022-12-14T18:36:15.279Z,100.00
2022-12-14T18:38:42.621Z,100.00
2022-12-14T18:41:11.591Z,100.00
2022-12-14T18:43:43.704Z,100.00
2022-12-14T18:46:11.001Z,100.00
2022-12-14T18:48:37.974Z,100.00
2022-12-14T18:51:06.325Z,100.00
2022-12-14T18:53:33.766Z,100.00
2022-12-14T18:56:01.996Z,100.00
2022-12-14T18:58:29.466Z,100.00
2022-12-14T19:00:57.590Z,100.00
2022-12-14T19:03:24.814Z,100.00
2022-12-14T19:05:52.196Z,100.00
2022-12-14T19:08:18.886Z,100.00
2022-12-14T19:10:47.788Z,100.00
2022-12-14T19:13:19.065Z,100.00
2022-12-14T19:15:50.603Z,100.00
2022-12-14T19:18:17.739Z,100.00
2022-12-14T19:20:44.512Z,100.00
2022-12-14T19:23:17.576Z,100.00
2022-12-14T19:25:44.860Z,100.00
2022-12-14T19:28:30.794Z,100.00
2022-12-14T19:30:58.909Z,100.00
2022-12-14T19:33:27.242Z,100.00
2022-12-14T19:35:54.653Z,100.00
2022-12-14T19:38:21.806Z,100.00
2022-12-14T19:40:59.872Z,100.00
2022-12-14T19:43:27.069Z,100.00
2022-12-14T19:45:53.900Z,100.00
2022-12-14T19:48:20.864Z,100.00
2022-12-14T19:50:49.446Z,100.00
2022-12-14T19:53:21.615Z,100.00
2022-12-14T19:55:53.567Z,100.00
2022-12-14T19:58:22.230Z,100.00
2022-12-14T20:00:49.758Z,100.00
2022-12-14T20:03:17.000Z,100.00
2022-12-14T20:05:58.784Z,100.00
2022-12-14T20:08:26.325Z,98.91
2022-12-14T20:10:53.443Z,98.33
2022-12-14T20:13:21.105Z,97.68
2022-12-14T20:15:49.480Z,97.45
2022-12-14T20:18:16.500Z,96.24
2022-12-14T20:20:43.528Z,96.50
2022-12-14T20:23:10.426Z,97.05
2022-12-14T20:25:37.226Z,94.42
2022-12-14T20:28:04.447Z,93.69
2022-12-14T20:30:33.230Z,93.66
2022-12-14T20:33:00.445Z,93.50
2022-12-14T20:35:27.331Z,92.87
2022-12-14T20:37:54.326Z,92.61
2022-12-14T20:40:21.304Z,92.83
2022-12-14T20:42:49.630Z,91.48
2022-12-14T20:45:16.878Z,91.70
2022-12-14T20:47:44.271Z,91.87
2022-12-14T20:50:11.350Z,91.85
2022-12-14T20:52:38.891Z,92.67
2022-12-14T20:55:06.439Z,93.14
2022-12-14T20:57:33.737Z,93.72
2022-12-14T21:00:01.161Z,94.41
2022-12-14T21:02:28.560Z,94.63
2022-12-14T21:04:55.975Z,95.20
2022-12-14T21:07:26.312Z,94.42
2022-12-14T21:09:56.952Z,95.46
2022-12-14T21:12:24.756Z,95.65
2022-12-14T21:15:02.299Z,97.68
2022-12-14T21:17:30.233Z,97.30
2022-12-14T21:19:58.024Z,99.67
2022-12-14T21:22:26.351Z,99.50
2022-12-14T21:25:02.972Z,100.00
2022-12-14T21:27:31.716Z,100.00
2022-12-14T21:29:58.584Z,100.00
2022-12-14T21:32:26.345Z,100.00
2022-12-14T21:34:53.300Z,100.00
2022-12-14T21:37:20.913Z,100.00
2022-12-14T21:39:54.410Z,100.00
2022-12-14T21:42:25.928Z,100.00
2022-12-14T21:44:53.652Z,100.00
2022-12-14T21:47:24.802Z,100.00
2022-12-14T21:49:51.720Z,100.00
2022-12-14T21:52:20.688Z,100.00
2022-12-14T21:54:47.618Z,100.00
2022-12-14T21:57:34.073Z,100.00
2022-12-14T22:00:01.538Z,100.00
2022-12-14T22:02:29.335Z,100.00
2022-12-14T22:04:56.445Z,100.00
2022-12-14T22:07:24.695Z,100.00
2022-12-14T22:09:51.434Z,100.00
2022-12-14T22:12:18.532Z,100.00
2022-12-14T22:14:45.305Z,100.00
2022-12-14T22:17:13.177Z,100.00
2022-12-14T22:19:40.044Z,100.00
2022-12-14T22:22:06.906Z,100.00
2022-12-14T22:24:33.712Z,100.00
2022-12-14T22:27:00.856Z,100.00
2022-12-14T22:29:27.764Z,100.00
2022-12-14T22:31:54.574Z,100.00
2022-12-14T22:34:23.163Z,100.00
2022-12-14T22:36:51.114Z,98.95
2022-12-14T22:39:18.422Z,99.56
2022-12-14T22:41:45.693Z,99.66
2022-12-14T22:44:15.331Z,100.00
2022-12-14T22:46:42.193Z,99.41
2022-12-14T22:49:17.387Z,99.62
2022-12-14T22:51:44.278Z,99.62
2022-12-14T22:54:17.317Z,99.20
2022-12-14T22:56:46.399Z,99.76
2022-12-14T22:59:17.478Z,99.86
2022-12-14T23:01:49.909Z,100.00
2022-12-14T23:04:17.774Z,100.00
2022-12-14T23:06:45.363Z,100.00
2022-12-14T23:09:30.473Z,100.00
2022-12-14T23:12:21.205Z,100.00
2022-12-14T23:15:07.244Z,100.00
2022-12-14T23:17:52.664Z,100.00
2022-12-14T23:20:38.267Z,100.00
2022-12-14T23:23:27.193Z,100.00
2022-12-14T23:26:12.860Z,100.00
2022-12-14T23:28:58.503Z,100.00
2022-12-14T23:31:43.614Z,100.00
2022-12-14T23:34:28.768Z,100.00
2022-12-14T23:37:19.750Z,100.00
2022-12-14T23:40:05.481Z,100.00
2022-12-14T23:42:50.537Z,100.00
2022-12-14T23:45:35.707Z,100.00
2022-12-14T23:48:20.673Z,100.00
2022-12-14T23:51:05.920Z,100.00
2022-12-14T23:53:51.181Z,100.00
2022-12-14T23:56:36.283Z,100.00
2022-12-14T23:59:24.956Z,100.00
